Terminal Aerodrome Forecast
Issued by NWS

Home | Current Version | Previous Version | Text Only | Print | Product List | Glossary On
Versions: 1 2 3 4 5 6 7 8 9 10 11 12 13 14 15 16 17 18 19 20 21 22 23 24 25 26 27 28 29 30
000
FTUS44 KLIX 301743
TAFHUM
TAF
KHUM 301743Z 3018/3118 24010KT P6SM SCT025
      TEMPO 3018/3022 VRB13G25KT 2SM TSRA BKN028CB
     FM310300 VRB03KT P6SM FEW110 SCT200
     FM311500 00000KT P6SM BKN025 BKN070
     FM311600 00000KT P6SM SCT070 BKN200=

USA.gov is the U.S. government's official web portal to all federal, state and local government web resources and services.